Time;durP1;ratioP1;P1;durP2;ratioP2;P2;SDS_P1;SDS_P2;PMS_P1;PMS_P2;Temp;Humidity;BMP_temperature;BMP_pressure;BME280_temperature;BME280_humidity;BME280_pressure;Samples;Min_cycle;Max_cycle;Signal;HPM_P1;HPM_P2
2024/03/20 00:00:37;;;;;;;0.20;0.20;;;;;;;8.63;100.00;99639.91;5060451;28;20568;-59
2024/03/20 00:03:04;;;;;;;0.30;0.30;;;;;;;8.76;100.00;99648.84;5050524;28;20208;-60
2024/03/20 00:05:32;;;;;;;0.20;0.20;;;;;;;8.94;100.00;99640.06;5056667;28;20056;-57
2024/03/20 00:07:59;;;;;;;0.30;0.30;;;;;;;9.07;100.00;99639.91;5056929;28;20129;-59
2024/03/20 00:10:27;;;;;;;0.30;0.30;;;;;;;9.18;100.00;99639.16;5050808;28;20679;-59
2024/03/20 00:12:56;;;;;;;0.20;0.20;;;;;;;9.25;100.00;99641.75;5043752;28;20047;-59
2024/03/20 00:15:23;;;;;;;0.20;0.20;;;;;;;9.19;100.00;99637.31;5061202;28;20123;-57
2024/03/20 00:17:49;;;;;;;0.20;0.20;;;;;;;9.12;100.00;99634.72;5054622;28;20055;-57
2024/03/20 00:20:16;;;;;;;0.22;0.22;;;;;;;9.02;100.00;99637.91;5056577;28;20388;-59
2024/03/20 00:22:43;;;;;;;0.20;0.20;;;;;;;8.95;100.00;99636.34;5051970;28;20056;-57
2024/03/20 00:25:10;;;;;;;0.20;0.20;;;;;;;8.81;100.00;99636.47;5058552;28;20045;-59
2024/03/20 00:27:37;;;;;;;0.30;0.30;;;;;;;8.79;100.00;99638.56;5052530;28;20043;-58
2024/03/20 00:30:07;;;;;;;0.20;0.20;;;;;;;8.78;100.00;99636.09;5054664;28;20120;-58
2024/03/20 00:32:34;;;;;;;0.25;0.25;;;;;;;8.53;100.00;99636.13;5040942;28;20132;-58
2024/03/20 00:35:01;;;;;;;0.22;0.22;;;;;;;8.40;100.00;99640.53;5050482;28;20132;-58
2024/03/20 00:37:30;;;;;;;0.30;0.30;;;;;;;8.43;100.00;99639.28;5053520;28;20036;-58
2024/03/20 00:39:57;;;;;;;0.30;0.30;;;;;;;8.54;100.00;99645.78;5059429;28;20057;-58
2024/03/20 00:42:25;;;;;;;0.30;0.30;;;;;;;8.63;100.00;99629.22;5048699;28;20107;-58
2024/03/20 00:44:53;;;;;;;0.30;0.30;;;;;;;8.64;100.00;99632.75;5052551;28;20123;-58
2024/03/20 00:47:21;;;;;;;0.20;0.20;;;;;;;8.62;100.00;99632.94;5055643;28;20056;-58
2024/03/20 00:49:48;;;;;;;0.20;0.20;;;;;;;8.52;100.00;99637.16;5051992;28;20053;-58
2024/03/20 00:52:15;;;;;;;0.30;0.30;;;;;;;8.47;100.00;99634.31;5055020;28;20072;-58
2024/03/20 00:54:43;;;;;;;0.30;0.30;;;;;;;8.47;100.00;99632.47;5052768;28;20052;-58
2024/03/20 00:57:10;;;;;;;0.30;0.30;;;;;;;8.57;100.00;99624.78;5052296;28;20118;-58
2024/03/20 00:59:37;;;;;;;0.20;0.20;;;;;;;8.57;100.00;99623.97;5047522;28;20039;-58
2024/03/20 01:02:06;;;;;;;0.28;0.28;;;;;;;8.41;100.00;99625.31;5056622;28;20052;-58
2024/03/20 01:04:34;;;;;;;0.30;0.30;;;;;;;8.38;100.00;99621.19;5058395;28;20070;-58
2024/03/20 01:07:01;;;;;;;0.40;0.40;;;;;;;8.34;100.00;99624.53;5050573;28;20048;-58
2024/03/20 01:09:28;;;;;;;0.20;0.20;;;;;;;8.30;100.00;99620.66;5050506;28;20049;-58
2024/03/20 01:11:55;;;;;;;0.25;0.25;;;;;;;8.55;100.00;99616.16;5051288;28;20125;-58
2024/03/20 01:14:23;;;;;;;0.20;0.20;;;;;;;8.31;100.00;99615.13;5060142;28;20048;-58
2024/03/20 01:16:50;;;;;;;0.30;0.30;;;;;;;8.21;100.00;99614.75;5056248;28;20051;-58
2024/03/20 01:19:17;;;;;;;0.30;0.30;;;;;;;8.38;100.00;99615.03;5050630;28;20120;-58
2024/03/20 01:21:46;;;;;;;0.28;0.28;;;;;;;8.48;100.00;99607.38;5056262;28;20039;-58
2024/03/20 01:24:13;;;;;;;0.28;0.28;;;;;;;8.47;100.00;99612.97;5050334;28;20056;-58
2024/03/20 01:26:40;;;;;;;0.30;0.30;;;;;;;8.43;100.00;99613.38;5049331;28;20044;-58
2024/03/20 01:29:07;;;;;;;0.25;0.25;;;;;;;8.43;100.00;99608.03;5054907;28;20073;-58
2024/03/20 01:31:34;;;;;;;0.28;0.28;;;;;;;8.53;100.00;99612.06;5051989;28;20739;-58
2024/03/20 01:34:01;;;;;;;0.30;0.30;;;;;;;8.45;100.00;99607.81;5055392;28;20505;-58
2024/03/20 01:36:29;;;;;;;0.30;0.30;;;;;;;8.33;100.00;99607.69;5051161;28;20032;-58
2024/03/20 01:38:57;;;;;;;0.20;0.20;;;;;;;8.25;100.00;99612.50;5051486;28;20420;-58
2024/03/20 01:41:24;;;;;;;0.20;0.20;;;;;;;8.13;100.00;99604.34;5057922;28;21390;-58
2024/03/20 01:43:54;;;;;;;0.30;0.30;;;;;;;8.05;100.00;99605.44;5058773;28;20050;-58
2024/03/20 01:46:31;;;;;;;0.38;0.38;;;;;;;7.86;100.00;99609.91;5052388;28;20073;-58
2024/03/20 01:48:58;;;;;;;0.20;0.20;;;;;;;7.87;100.00;99598.19;5054880;28;20036;-58
2024/03/20 01:51:25;;;;;;;0.30;0.30;;;;;;;7.94;100.00;99595.47;5053858;28;20173;-58
2024/03/20 01:53:52;;;;;;;0.30;0.30;;;;;;;8.04;100.00;99603.81;5056747;28;20029;-58
2024/03/20 01:56:21;;;;;;;0.20;0.20;;;;;;;7.93;100.00;99599.16;5057282;28;20131;-58
2024/03/20 01:58:48;;;;;;;0.30;0.30;;;;;;;7.92;100.00;99598.34;5051195;28;20139;-58
2024/03/20 02:01:15;;;;;;;0.30;0.30;;;;;;;7.92;100.00;99601.03;5063531;28;20094;-58
2024/03/20 02:03:43;;;;;;;0.30;0.30;;;;;;;7.80;100.00;99596.59;5054420;28;20064;-58
2024/03/20 02:06:20;;;;;;;0.20;0.20;;;;;;;7.73;100.00;99596.63;5056221;28;20056;-58
2024/03/20 02:08:47;;;;;;;0.22;0.22;;;;;;;7.51;100.00;99599.63;5057054;28;20072;-58
2024/03/20 02:11:14;;;;;;;0.30;0.30;;;;;;;7.43;100.00;99601.72;5056220;28;20041;-58
2024/03/20 02:13:46;;;;;;;0.30;0.30;;;;;;;7.41;100.00;99593.09;5056704;28;20037;-58
2024/03/20 02:16:13;;;;;;;0.30;0.30;;;;;;;7.46;100.00;99596.78;5059855;28;20129;-58
2024/03/20 02:18:40;;;;;;;0.30;0.30;;;;;;;7.51;100.00;99598.78;5055030;28;20045;-58
2024/03/20 02:21:09;;;;;;;0.30;0.30;;;;;;;7.55;100.00;99600.00;5051085;28;20128;-58
2024/03/20 02:23:36;;;;;;;0.30;0.30;;;;;;;7.48;100.00;99600.03;5065290;28;20132;-58
2024/03/20 02:26:04;;;;;;;0.30;0.30;;;;;;;7.46;100.00;99596.78;5058362;28;20075;-58
2024/03/20 02:28:32;;;;;;;0.30;0.30;;;;;;;7.47;100.00;99601.09;5054782;28;20051;-58
2024/03/20 02:30:59;;;;;;;0.30;0.30;;;;;;;7.48;100.00;99594.69;5057546;28;20127;-58
2024/03/20 02:33:26;;;;;;;0.30;0.30;;;;;;;7.57;100.00;99598.78;5051878;28;20039;-58
2024/03/20 02:35:53;;;;;;;0.28;0.28;;;;;;;7.46;100.00;99590.63;5058211;28;20097;-58
2024/03/20 02:38:21;;;;;;;0.30;0.30;;;;;;;7.25;100.00;99594.41;5054040;28;20149;-58
2024/03/20 02:40:49;;;;;;;0.30;0.30;;;;;;;7.01;100.00;99593.25;5064434;28;20509;-58
2024/03/20 02:43:16;;;;;;;0.30;0.30;;;;;;;6.93;100.00;99590.84;5054601;28;20476;-58
2024/03/20 02:45:43;;;;;;;0.40;0.40;;;;;;;7.06;100.00;99591.63;5051049;28;20040;-58
2024/03/20 02:48:12;;;;;;;0.20;0.20;;;;;;;7.11;100.00;99596.31;5053419;28;20080;-58
2024/03/20 02:50:39;;;;;;;0.30;0.30;;;;;;;7.08;100.00;99594.88;5057061;28;20052;-58
2024/03/20 02:53:06;;;;;;;0.40;0.40;;;;;;;7.05;100.00;99594.50;5045435;28;20518;-58
2024/03/20 02:55:35;;;;;;;0.30;0.30;;;;;;;7.04;100.00;99588.34;5055861;28;20094;-58
2024/03/20 02:58:02;;;;;;;0.30;0.30;;;;;;;6.99;100.00;99598.81;5053575;28;20036;-58
2024/03/20 03:00:29;;;;;;;0.30;0.30;;;;;;;6.92;100.00;99590.03;5054538;28;20056;-58
2024/03/20 03:02:57;;;;;;;0.25;0.25;;;;;;;6.87;100.00;99597.84;5051962;28;20084;-58
2024/03/20 03:05:24;;;;;;;0.30;0.30;;;;;;;6.81;100.00;99604.78;5059698;28;20342;-58
2024/03/20 03:07:51;;;;;;;0.30;0.30;;;;;;;6.68;100.00;99595.00;5051908;28;20043;-58
2024/03/20 03:10:19;;;;;;;0.30;0.30;;;;;;;6.59;100.00;99601.59;5035544;28;20091;-58
2024/03/20 03:12:47;;;;;;;0.30;0.30;;;;;;;6.79;100.00;99595.38;5058701;28;20407;-59
2024/03/20 03:15:14;;;;;;;0.30;0.30;;;;;;;6.87;100.00;99592.50;5055314;28;20167;-58
2024/03/20 03:17:42;;;;;;;0.30;0.30;;;;;;;6.91;100.00;99593.69;5058452;28;20047;-58
2024/03/20 03:20:13;;;;;;;0.30;0.30;;;;;;;6.95;100.00;99594.94;5047000;28;20166;-58
2024/03/20 03:22:40;;;;;;;0.30;0.30;;;;;;;6.80;100.00;99597.03;5057769;28;20040;-58
2024/03/20 03:25:08;;;;;;;0.30;0.30;;;;;;;6.79;100.00;99590.03;5051413;28;20706;-58
2024/03/20 03:27:35;;;;;;;0.30;0.30;;;;;;;6.65;100.00;99595.41;5052034;28;20496;-58
2024/03/20 03:30:04;;;;;;;0.30;0.30;;;;;;;6.52;100.00;99597.28;5052869;28;20045;-58
2024/03/20 03:32:31;;;;;;;0.30;0.30;;;;;;;6.40;100.00;99594.44;5052693;28;20036;-57
2024/03/20 03:34:59;;;;;;;0.40;0.40;;;;;;;6.30;100.00;99597.50;5056247;28;20045;-59
2024/03/20 03:37:26;;;;;;;0.30;0.30;;;;;;;6.39;100.00;99598.09;5050889;28;20045;-57
2024/03/20 03:39:53;;;;;;;0.30;0.30;;;;;;;6.45;100.00;99602.63;5049936;28;20681;-59
2024/03/20 03:42:20;;;;;;;0.30;0.30;;;;;;;6.42;100.00;99595.03;5054348;28;20326;-57
2024/03/20 03:44:47;;;;;;;0.30;0.30;;;;;;;6.35;100.00;99602.22;5085655;28;20033;-57
2024/03/20 03:47:16;;;;;;;0.30;0.30;;;;;;;6.02;100.00;99603.03;5053889;28;20076;-57
2024/03/20 03:49:42;;;;;;;0.40;0.40;;;;;;;5.99;100.00;99608.75;5048101;28;20048;-56
2024/03/20 03:52:09;;;;;;;0.40;0.40;;;;;;;6.11;100.00;99607.09;5056677;28;20127;-57
2024/03/20 03:54:36;;;;;;;0.40;0.40;;;;;;;6.12;100.00;99607.94;5055649;28;20040;-57
2024/03/20 03:57:04;;;;;;;0.40;0.40;;;;;;;6.07;100.00;99603.25;5050451;28;20068;-57
2024/03/20 03:59:31;;;;;;;0.30;0.30;;;;;;;6.00;100.00;99608.53;5051308;28;20051;-57
2024/03/20 04:01:58;;;;;;;0.40;0.40;;;;;;;6.16;100.00;99603.84;5054369;28;20033;-57
2024/03/20 04:04:26;;;;;;;0.43;0.43;;;;;;;6.15;100.00;99600.38;5044792;28;20129;-57
2024/03/20 04:06:54;;;;;;;0.30;0.30;;;;;;;6.22;100.00;99611.84;5048816;28;20094;-57
2024/03/20 04:09:21;;;;;;;0.38;0.38;;;;;;;6.26;100.00;99607.75;5059313;28;20045;-58
2024/03/20 04:11:48;;;;;;;0.30;0.30;;;;;;;6.35;100.00;99610.19;5051619;28;20043;-57
2024/03/20 04:14:16;;;;;;;0.30;0.30;;;;;;;5.88;100.00;99609.31;5051761;28;20518;-57
2024/03/20 04:16:44;;;;;;;0.45;0.45;;;;;;;6.32;100.00;99608.78;5049241;28;20494;-57
2024/03/20 04:19:11;;;;;;;0.40;0.40;;;;;;;6.28;100.00;99604.06;5049733;28;20056;-57
2024/03/20 04:21:40;;;;;;;0.40;0.40;;;;;;;6.34;100.00;99605.88;5057733;28;20140;-56
2024/03/20 04:24:07;;;;;;;0.40;0.40;;;;;;;5.83;100.00;99613.41;5049279;28;20548;-57
2024/03/20 04:26:35;;;;;;;0.40;0.40;;;;;;;5.75;100.00;99616.25;5050790;28;20040;-60
2024/03/20 04:29:02;;;;;;;0.35;0.35;;;;;;;5.16;100.00;99619.53;5058090;28;20162;-57
2024/03/20 04:31:29;;;;;;;0.43;0.43;;;;;;;5.04;100.00;99616.63;5052250;28;20041;-57
2024/03/20 04:33:56;;;;;;;0.43;0.43;;;;;;;5.30;100.00;99612.44;5064310;28;20064;-57
2024/03/20 04:36:23;;;;;;;0.40;0.40;;;;;;;5.34;100.00;99617.16;5055841;28;20075;-57
2024/03/20 04:38:54;;;;;;;0.40;0.40;;;;;;;5.36;100.00;99611.63;5053205;28;20139;-59
2024/03/20 04:41:22;;;;;;;0.35;0.35;;;;;;;5.41;100.00;99610.00;5050904;28;20049;-60
2024/03/20 04:43:49;;;;;;;0.40;0.40;;;;;;;5.37;100.00;99614.09;5054078;28;20037;-57
2024/03/20 04:46:16;;;;;;;0.40;0.40;;;;;;;5.46;100.00;99611.25;5051375;28;20171;-57
2024/03/20 04:48:43;;;;;;;0.30;0.30;;;;;;;5.26;100.00;99622.63;5055592;28;20160;-57
2024/03/20 04:51:10;;;;;;;0.40;0.40;;;;;;;5.20;100.00;99612.81;5057236;28;20056;-58
2024/03/20 04:53:37;;;;;;;0.40;0.40;;;;;;;5.38;100.00;99610.41;5056042;28;20405;-58
2024/03/20 04:56:06;;;;;;;0.38;0.38;;;;;;;5.49;100.00;99622.34;5051947;28;20136;-57
2024/03/20 04:58:33;;;;;;;0.38;0.38;;;;;;;5.79;100.00;99616.66;5050434;28;20133;-58
2024/03/20 05:01:00;;;;;;;0.45;0.45;;;;;;;5.73;100.00;99625.44;5061659;28;20064;-57
2024/03/20 05:03:27;;;;;;;0.50;0.50;;;;;;;5.54;100.00;99627.88;5056696;28;20072;-57
2024/03/20 05:05:54;;;;;;;0.40;0.40;;;;;;;5.53;100.00;99620.09;5055524;28;20467;-57
2024/03/20 05:08:21;;;;;;;0.50;0.50;;;;;;;5.24;100.00;99624.69;5058556;28;20072;-57
2024/03/20 05:10:48;;;;;;;0.43;0.43;;;;;;;5.40;100.00;99619.00;5048140;28;20119;-57
2024/03/20 05:13:17;;;;;;;0.40;0.40;;;;;;;5.73;100.00;99612.97;5059175;28;20045;-58
2024/03/20 05:15:44;;;;;;;0.45;0.45;;;;;;;5.84;100.00;99608.88;5046664;28;20075;-57
2024/03/20 05:18:11;;;;;;;0.40;0.40;;;;;;;6.02;100.00;99614.50;5057297;28;20072;-60
2024/03/20 05:20:38;;;;;;;0.40;0.40;;;;;;;6.20;100.00;99613.88;5045891;28;20325;-59
2024/03/20 05:23:04;;;;;;;0.40;0.40;;;;;;;6.43;100.00;99615.31;5055727;28;20044;-59
2024/03/20 05:25:35;;;;;;;0.50;0.50;;;;;;;6.47;100.00;99608.56;5051404;28;20080;-57
2024/03/20 05:28:02;;;;;;;0.38;0.38;;;;;;;6.28;100.00;99617.38;5055118;28;20055;-59
2024/03/20 05:30:30;;;;;;;0.40;0.40;;;;;;;6.19;100.00;99616.72;5053107;28;20059;-59
2024/03/20 05:32:56;;;;;;;0.50;0.50;;;;;;;6.10;100.00;99613.47;5056036;28;20040;-57
2024/03/20 05:35:23;;;;;;;0.40;0.40;;;;;;;5.98;100.00;99613.25;5087115;28;20581;-57
2024/03/20 05:37:49;;;;;;;0.40;0.40;;;;;;;6.06;100.00;99617.53;5054261;28;20094;-58
2024/03/20 05:40:17;;;;;;;0.40;0.40;;;;;;;6.08;100.00;99617.34;5079520;27;20071;-58
2024/03/20 05:42:43;;;;;;;0.43;0.43;;;;;;;5.95;100.00;99618.16;5051280;28;20728;-58
2024/03/20 05:45:10;;;;;;;0.40;0.40;;;;;;;5.82;100.00;99621.59;5049844;28;20040;-57
2024/03/20 05:47:38;;;;;;;0.43;0.43;;;;;;;5.70;100.00;99621.34;5053165;28;20044;-59
2024/03/20 05:50:06;;;;;;;0.30;0.30;;;;;;;5.76;100.00;99633.03;5053399;28;20049;-59
2024/03/20 05:52:32;;;;;;;0.28;0.28;;;;;;;5.67;100.00;99632.41;5056265;28;20056;-59
2024/03/20 05:54:59;;;;;;;0.38;0.38;;;;;;;5.56;100.00;99622.34;5057771;28;20051;-58
2024/03/20 05:57:25;;;;;;;0.40;0.40;;;;;;;5.53;100.00;99628.88;5055652;28;20044;-59
2024/03/20 05:59:53;;;;;;;0.40;0.40;;;;;;;6.10;100.00;99624.13;5053705;28;20508;-58
2024/03/20 06:02:19;;;;;;;0.50;0.50;;;;;;;6.56;100.00;99625.13;5053303;28;20053;-59
2024/03/20 06:04:47;;;;;;;0.40;0.40;;;;;;;6.22;100.00;99627.81;5057409;28;20041;-58
2024/03/20 06:07:13;;;;;;;0.50;0.50;;;;;;;6.72;100.00;99627.38;5052492;28;20044;-59
2024/03/20 06:09:41;;;;;;;0.30;0.30;;;;;;;7.02;100.00;99625.06;5058177;28;20045;-59
2024/03/20 06:12:09;;;;;;;0.40;0.40;;;;;;;6.99;100.00;99628.13;5053682;28;20049;-58
2024/03/20 06:14:36;;;;;;;0.40;0.40;;;;;;;7.05;100.00;99632.63;5054365;28;20169;-59
2024/03/20 06:17:04;;;;;;;0.40;0.40;;;;;;;7.11;100.00;99637.13;5059136;28;20045;-58
2024/03/20 06:19:31;;;;;;;0.30;0.30;;;;;;;6.86;100.00;99639.66;5052677;28;20053;-58
2024/03/20 06:21:59;;;;;;;0.35;0.35;;;;;;;7.00;100.00;99647.59;5054384;28;20043;-59
2024/03/20 06:24:26;;;;;;;0.40;0.40;;;;;;;7.16;100.00;99651.66;5050441;28;20040;-58
2024/03/20 06:26:52;;;;;;;0.47;0.47;;;;;;;7.22;100.00;99654.31;5048788;28;20058;-58
2024/03/20 06:29:19;;;;;;;0.30;0.30;;;;;;;6.98;100.00;99647.00;5052925;28;20040;-58
2024/03/20 06:31:46;;;;;;;0.40;0.40;;;;;;;7.16;100.00;99651.66;5053558;28;20045;-59
2024/03/20 06:34:13;;;;;;;0.40;0.40;;;;;;;7.56;100.00;99645.16;5055786;28;20040;-59
2024/03/20 06:36:39;;;;;;;0.40;0.40;;;;;;;8.09;100.00;99643.22;5050860;28;20762;-58
2024/03/20 06:39:09;;;;;;;0.25;0.25;;;;;;;8.82;100.00;99647.97;5052969;28;20072;-59
2024/03/20 06:41:36;;;;;;;;;;;;;;;8.55;100.00;99652.75;5055809;28;20428;-59
2024/03/20 06:44:07;;;;;;;0.22;0.22;;;;;;;8.78;100.00;99647.59;5060854;28;20394;-58
2024/03/20 06:46:33;;;;;;;0.35;0.35;;;;;;;8.93;100.00;99654.44;5050298;28;20050;-58
2024/03/20 06:49:02;;;;;;;0.40;0.40;;;;;;;8.91;100.00;99651.16;5048695;28;20040;-58
2024/03/20 06:51:32;;;;;;;0.30;0.30;;;;;;;9.09;100.00;99648.53;5059774;28;20033;-58
2024/03/20 06:54:01;;;;;;;0.40;0.40;;;;;;;9.23;100.00;99654.53;5057230;28;20076;-58
2024/03/20 06:56:28;;;;;;;0.40;0.40;;;;;;;9.63;100.00;99646.84;5068072;28;20040;-59
2024/03/20 06:58:55;;;;;;;0.30;0.30;;;;;;;9.76;100.00;99651.22;5054106;28;20048;-58
2024/03/20 07:01:21;;;;;;;0.40;0.40;;;;;;;9.62;100.00;99657.78;5054063;28;20041;-58
2024/03/20 07:03:49;;;;;;;0.32;0.32;;;;;;;9.99;100.00;99661.19;5057205;28;20120;-59
2024/03/20 07:06:15;;;;;;;0.20;0.20;;;;;;;10.26;100.00;99663.47;5059997;28;20131;-58
2024/03/20 07:08:42;;;;;;;0.30;0.30;;;;;;;10.72;100.00;99673.47;5051879;28;20093;-59
2024/03/20 07:11:08;;;;;;;0.30;0.30;;;;;;;11.44;95.92;99672.38;5059617;28;20053;-59
2024/03/20 07:13:36;;;;;;;0.30;0.30;;;;;;;11.28;94.96;99671.22;5046383;28;20065;-59
2024/03/20 07:16:03;;;;;;;0.20;0.20;;;;;;;11.31;95.27;99669.97;5050156;28;20414;-58
2024/03/20 07:18:30;;;;;;;0.30;0.30;;;;;;;11.32;95.70;99674.25;5047228;28;20372;-59
2024/03/20 07:20:56;;;;;;;0.20;0.20;;;;;;;10.80;97.14;99678.47;5053461;28;20048;-59
2024/03/20 07:23:23;;;;;;;0.30;0.30;;;;;;;11.40;96.12;99677.38;5057751;28;20064;-59
2024/03/20 07:25:50;;;;;;;0.30;0.30;;;;;;;12.43;91.49;99687.38;5051476;28;20075;-59
2024/03/20 07:28:18;;;;;;;0.30;0.30;;;;;;;12.64;90.07;99685.84;5049965;28;20044;-59
2024/03/20 07:30:45;;;;;;;0.30;0.30;;;;;;;12.78;89.73;99689.00;5049355;28;20131;-59
2024/03/20 07:33:14;;;;;;;0.20;0.20;;;;;;;12.86;89.92;99694.00;5052866;28;20052;-59
2024/03/20 07:35:44;;;;;;;0.20;0.20;;;;;;;12.34;92.42;99683.47;5051857;28;20119;-58
2024/03/20 07:38:13;;;;;;;0.20;0.20;;;;;;;12.22;93.13;99686.22;5052219;28;20914;-59
2024/03/20 07:40:39;;;;;;;0.20;0.20;;;;;;;12.57;92.61;99691.38;5057353;28;20055;-59
2024/03/20 07:43:07;;;;;;;0.15;0.15;;;;;;;12.97;90.36;99697.66;5048871;28;20041;-58
2024/03/20 07:45:33;;;;;;;0.20;0.20;;;;;;;12.82;89.38;99700.94;5059053;28;20091;-58
2024/03/20 07:48:02;;;;;;;0.20;0.20;;;;;;;12.84;91.85;99696.13;5063667;28;20058;-59
2024/03/20 07:50:28;;;;;;;0.20;0.20;;;;;;;12.99;90.82;99699.03;5074369;28;20143;-59
2024/03/20 07:52:55;;;;;;;0.20;0.20;;;;;;;12.73;91.98;99697.84;5057871;28;20062;-59
2024/03/20 07:55:21;;;;;;;0.10;0.10;;;;;;;12.72;90.74;99694.31;5053668;28;20053;-59
2024/03/20 07:57:48;;;;;;;0.20;0.20;;;;;;;13.44;87.66;99698.06;5053141;28;20051;-59
2024/03/20 08:00:16;;;;;;;0.20;0.20;;;;;;;13.08;89.99;99705.63;5053550;28;20040;-58
2024/03/20 08:02:43;;;;;;;0.20;0.20;;;;;;;13.54;88.08;99710.84;5051657;28;20487;-58
2024/03/20 08:05:11;;;;;;;0.20;0.20;;;;;;;13.05;88.51;99708.78;5050013;28;20047;-59
2024/03/20 08:07:38;;;;;;;0.20;0.20;;;;;;;14.13;85.05;99704.81;5052511;28;20087;-59
2024/03/20 08:10:07;;;;;;;0.20;0.20;;;;;;;14.39;82.61;99709.34;5050980;28;20056;-59
2024/03/20 08:12:36;;;;;;;0.20;0.20;;;;;;;14.79;82.99;99702.69;5056554;28;20106;-59
2024/03/20 08:15:03;;;;;;;0.20;0.20;;;;;;;13.95;85.72;99701.38;5054731;28;20045;-59
2024/03/20 08:17:31;;;;;;;0.10;0.10;;;;;;;14.11;82.33;99696.16;5051212;28;20434;-57
2024/03/20 08:19:57;;;;;;;0.10;0.10;;;;;;;13.85;85.95;99697.75;5051536;28;20639;-58
2024/03/20 08:22:26;;;;;;;0.17;0.17;;;;;;;13.48;86.92;99704.59;5061529;28;20591;-58
2024/03/20 08:24:52;;;;;;;0.10;0.10;;;;;;;13.76;87.49;99708.16;5057567;28;20035;-58
2024/03/20 08:27:24;;;;;;;0.10;0.10;;;;;;;13.74;87.24;99702.22;5056840;28;20044;-59
2024/03/20 08:29:51;;;;;;;0.20;0.20;;;;;;;14.05;88.31;99697.97;5052284;28;20044;-59
2024/03/20 08:32:18;;;;;;;0.10;0.10;;;;;;;14.44;85.30;99693.22;5056098;28;20082;-59
2024/03/20 08:34:45;;;;;;;0.10;0.10;;;;;;;15.04;83.33;99693.16;5067240;28;20982;-59
2024/03/20 08:37:11;;;;;;;0.10;0.10;;;;;;;15.18;80.99;99683.53;5065530;28;20071;-59
2024/03/20 08:39:39;;;;;;;0.10;0.10;;;;;;;15.01;82.47;99677.50;5047087;28;20146;-59
2024/03/20 08:42:06;;;;;;;0.10;0.10;;;;;;;15.13;81.81;99683.50;5063269;28;20233;-58
2024/03/20 08:44:33;;;;;;;0.10;0.10;;;;;;;15.80;79.65;99686.50;5059012;28;20137;-58
2024/03/20 08:47:00;;;;;;;0.15;0.15;;;;;;;16.11;77.91;99685.53;5055798;28;20458;-58
2024/03/20 08:49:26;;;;;;;0.20;0.20;;;;;;;15.66;80.36;99684.28;5046988;28;20040;-58
2024/03/20 08:51:54;;;;;;;0.10;0.10;;;;;;;15.72;79.29;99691.38;5069040;28;20520;-59
2024/03/20 08:54:21;;;;;;;0.10;0.10;;;;;;;15.58;84.21;99687.50;5058409;28;20056;-60
2024/03/20 08:56:49;;;;;;;0.10;0.10;;;;;;;15.86;83.03;99690.88;5063774;28;20119;-57
2024/03/20 08:59:15;;;;;;;0.10;0.10;;;;;;;15.65;83.72;99688.06;5060134;28;20399;-57
2024/03/20 09:01:42;;;;;;;0.10;0.10;;;;;;;15.48;85.86;99690.16;5057849;28;20163;-57
2024/03/20 09:04:08;;;;;;;0.10;0.10;;;;;;;16.31;81.06;99692.03;5056501;28;20051;-57
2024/03/20 09:06:35;;;;;;;0.10;0.10;;;;;;;16.12;81.72;99691.72;5055935;28;20052;-57
2024/03/20 09:09:02;;;;;;;0.10;0.10;;;;;;;16.53;80.57;99700.72;5050654;28;20045;-58
2024/03/20 09:11:29;;;;;;;0.20;0.20;;;;;;;16.36;80.05;99702.88;5056762;28;20064;-59
2024/03/20 09:13:58;;;;;;;0.10;0.10;;;;;;;16.58;79.41;99700.72;5056348;28;20037;-59
2024/03/20 09:16:25;;;;;;;0.10;0.10;;;;;;;16.30;80.00;99701.22;5054466;28;20768;-59
2024/03/20 09:18:51;;;;;;;0.10;0.10;;;;;;;16.76;78.33;99695.84;5058736;28;20051;-56
2024/03/20 09:21:18;;;;;;;0.13;0.13;;;;;;;16.45;79.45;99693.16;5051539;28;20041;-59
2024/03/20 09:23:44;;;;;;;0.10;0.10;;;;;;;16.89;79.21;99691.78;5065759;28;20056;-59
2024/03/20 09:26:12;;;;;;;0.10;0.10;;;;;;;17.10;76.39;99684.44;5051689;28;20053;-59
2024/03/20 09:28:38;;;;;;;0.10;0.10;;;;;;;17.56;74.01;99687.00;5083360;28;20163;-57
2024/03/20 09:31:06;;;;;;;0.10;0.10;;;;;;;17.98;72.28;99683.06;5063767;28;20053;-58
2024/03/20 09:33:32;;;;;;;0.00;0.00;;;;;;;17.42;74.46;99684.91;5056274;28;20049;-58
2024/03/20 09:35:59;;;;;;;0.10;0.10;;;;;;;18.50;70.72;99685.13;5047731;28;20037;-59
2024/03/20 09:38:25;;;;;;;0.00;0.00;;;;;;;18.80;67.42;99685.19;5054910;28;20426;-59
2024/03/20 09:40:52;;;;;;;0.10;0.10;;;;;;;18.03;70.43;99685.72;5050907;28;20041;-57
2024/03/20 09:43:19;;;;;;;0.10;0.10;;;;;;;18.32;71.48;99689.34;5050888;28;20560;-57
2024/03/20 09:45:46;;;;;;;0.00;0.00;;;;;;;18.10;73.11;99691.66;5055568;28;20044;-57
2024/03/20 09:48:13;;;;;;;0.00;0.00;;;;;;;18.52;71.19;99692.97;5057663;28;20063;-58
2024/03/20 09:50:40;;;;;;;0.20;0.10;;;;;;;19.12;68.66;99674.53;5048834;28;20377;-58
2024/03/20 09:53:06;;;;;;;0.00;0.00;;;;;;;18.31;71.52;99682.28;5059714;28;20056;-58
2024/03/20 09:55:34;;;;;;;0.00;0.00;;;;;;;18.81;69.38;99684.09;5054711;28;20049;-58
2024/03/20 09:58:01;;;;;;;0.00;0.00;;;;;;;19.60;65.11;99677.25;5052713;28;20094;-58
2024/03/20 10:00:27;;;;;;;0.10;0.10;;;;;;;18.51;70.65;99669.66;5057435;28;20067;-58
2024/03/20 10:02:55;;;;;;;0.00;0.00;;;;;;;19.36;66.60;99671.00;5050089;28;20134;-59
2024/03/20 10:05:22;;;;;;;0.00;0.00;;;;;;;17.82;71.04;99679.59;5058141;28;20045;-59
2024/03/20 10:07:51;;;;;;;0.00;0.00;;;;;;;18.22;71.16;99661.44;5051244;28;20454;-59
2024/03/20 10:10:17;;;;;;;0.00;0.00;;;;;;;18.74;69.25;99668.88;5052210;28;20045;-59
2024/03/20 10:12:46;;;;;;;0.00;0.00;;;;;;;19.02;68.05;99666.50;5053686;28;20503;-57
2024/03/20 10:15:13;;;;;;;0.03;0.03;;;;;;;18.71;67.66;99663.22;5049926;28;20037;-57
2024/03/20 10:17:45;;;;;;;0.00;0.00;;;;;;;18.47;70.02;99663.16;5055740;28;20050;-58
2024/03/20 10:20:14;;;;;;;0.00;0.00;;;;;;;19.53;66.67;99662.38;5050485;28;20388;-57
2024/03/20 10:22:43;;;;;;;0.00;0.00;;;;;;;19.43;63.56;99663.31;5047163;28;20053;-57
2024/03/20 10:25:13;;;;;;;0.03;0.03;;;;;;;20.30;60.73;99659.41;5051989;28;20075;-57
2024/03/20 10:27:40;;;;;;;0.00;0.00;;;;;;;19.45;62.85;99657.59;5061011;28;20542;-57
2024/03/20 10:30:11;;;;;;;0.00;0.00;;;;;;;20.28;59.26;99656.19;5064768;28;20059;-57
2024/03/20 10:32:38;;;;;;;0.00;0.00;;;;;;;20.98;58.63;99659.94;5049203;28;20040;-57
2024/03/20 10:35:05;;;;;;;0.00;0.00;;;;;;;20.86;57.20;99655.75;5067573;28;20119;-57
2024/03/20 10:37:32;;;;;;;0.00;0.00;;;;;;;20.94;55.44;99656.19;5059688;28;20068;-57
2024/03/20 10:40:00;;;;;;;0.00;0.00;;;;;;;20.60;58.94;99660.06;5051509;28;20041;-57
2024/03/20 10:42:27;;;;;;;0.00;0.00;;;;;;;21.07;55.63;99666.31;5050371;28;20051;-57
2024/03/20 10:44:53;;;;;;;0.00;0.00;;;;;;;20.68;59.36;99667.53;5052741;28;20125;-57
2024/03/20 10:47:20;;;;;;;0.00;0.00;;;;;;;20.67;59.15;99663.22;5054811;28;20052;-57
2024/03/20 10:49:47;;;;;;;0.00;0.00;;;;;;;21.21;57.31;99669.81;5049507;28;20599;-57
2024/03/20 10:52:15;;;;;;;0.05;0.05;;;;;;;18.98;61.26;99662.72;5069548;28;20056;-57
2024/03/20 10:54:41;;;;;;;0.00;0.00;;;;;;;20.44;60.67;99659.44;5057947;28;20051;-57
2024/03/20 10:57:10;;;;;;;0.00;0.00;;;;;;;19.36;61.16;99658.22;5052389;28;20048;-57
2024/03/20 10:59:36;;;;;;;0.00;0.00;;;;;;;20.41;58.31;99649.16;5055890;28;20519;-57
2024/03/20 11:02:04;;;;;;;0.00;0.00;;;;;;;21.33;55.72;99653.78;5061777;28;20056;-57
2024/03/20 11:04:33;;;;;;;0.00;0.00;;;;;;;21.13;56.53;99659.63;5043732;28;20039;-57
2024/03/20 11:07:00;;;;;;;0.00;0.00;;;;;;;20.66;57.77;99656.13;5050760;28;20108;-57
2024/03/20 11:09:27;;;;;;;0.00;0.00;;;;;;;20.95;55.47;99649.63;5054849;28;20128;-58
2024/03/20 11:11:56;;;;;;;0.00;0.00;;;;;;;21.01;55.29;99651.16;5055604;28;20176;-58
2024/03/20 11:14:29;;;;;;;0.00;0.00;;;;;;;20.97;54.27;99641.97;5052376;28;20052;-58
2024/03/20 11:17:01;;;;;;;0.00;0.00;;;;;;;20.72;54.85;99644.06;5057958;28;20625;-58
2024/03/20 11:19:27;;;;;;;0.03;0.03;;;;;;;20.19;56.90;99642.44;5053791;28;20044;-58
2024/03/20 11:21:55;;;;;;;0.00;0.00;;;;;;;20.72;55.58;99644.06;5057852;28;20101;-58
2024/03/20 11:24:21;;;;;;;0.00;0.00;;;;;;;20.12;57.46;99638.47;5055357;28;20591;-57
2024/03/20 11:26:49;;;;;;;0.00;0.00;;;;;;;20.19;55.73;99636.19;5055215;28;20041;-58
2024/03/20 11:29:15;;;;;;;0.00;0.00;;;;;;;19.97;57.67;99643.06;5047630;28;20045;-58
2024/03/20 11:31:44;;;;;;;0.00;0.00;;;;;;;20.89;55.58;99635.28;5052269;28;20056;-58
2024/03/20 11:34:11;;;;;;;0.00;0.00;;;;;;;20.74;56.24;99636.38;5053595;28;20080;-58